sensor_id;sensor_type;location;lat;lon;timestamp;pressure;altitude;pressure_sealevel;temperature;humidity
13765;BME280;6953;48.810;9.204;2023-04-20T00:01:53;98770.19;;;4.98;90.96
13765;BME280;6953;48.810;9.204;2023-04-20T00:04:18;98772.59;;;4.75;91.04
13765;BME280;6953;48.810;9.204;2023-04-20T00:06:44;98761.94;;;4.84;91.83
13765;BME280;6953;48.810;9.204;2023-04-20T00:09:13;98772.25;;;4.87;92.15
13765;BME280;6953;48.810;9.204;2023-04-20T00:11:39;98761.28;;;4.77;92.22
13765;BME280;6953;48.810;9.204;2023-04-20T00:14:05;98791.97;;;4.63;92.74
13765;BME280;6953;48.810;9.204;2023-04-20T00:16:30;98755.38;;;4.71;92.89
13765;BME280;6953;48.810;9.204;2023-04-20T00:18:58;98757.06;;;4.72;93.34
13765;BME280;6953;48.810;9.204;2023-04-20T00:21:24;98793.66;;;4.66;92.68
13765;BME280;6953;48.810;9.204;2023-04-20T00:23:50;98748.00;;;4.57;93.47
13765;BME280;6953;48.810;9.204;2023-04-20T00:26:16;98757.28;;;4.66;93.86
13765;BME280;6953;48.810;9.204;2023-04-20T00:28:42;98421.84;;;2.79;93.87
13765;BME280;6953;48.810;9.204;2023-04-20T00:31:07;98759.09;;;4.62;93.64
13765;BME280;6953;48.810;9.204;2023-04-20T00:33:33;98697.94;;;4.51;93.18
13765;BME280;6953;48.810;9.204;2023-04-20T00:35:58;98662.09;;;4.34;93.41
13765;BME280;6953;48.810;9.204;2023-04-20T00:38:23;98733.44;;;4.81;93.26
13765;BME280;6953;48.810;9.204;2023-04-20T00:40:49;98725.66;;;4.79;93.16
13765;BME280;6953;48.810;9.204;2023-04-20T00:43:18;98721.41;;;4.77;92.99
13765;BME280;6953;48.810;9.204;2023-04-20T00:45:44;98630.66;;;4.14;92.80
13765;BME280;6953;48.810;9.204;2023-04-20T00:48:10;98707.50;;;4.50;93.04
13765;BME280;6953;48.810;9.204;2023-04-20T00:50:37;98457.47;;;3.03;92.85
13765;BME280;6953;48.810;9.204;2023-04-20T00:53:03;98728.06;;;4.58;93.75
13765;BME280;6953;48.810;9.204;2023-04-20T00:55:29;98754.91;;;4.57;93.69
13765;BME280;6953;48.810;9.204;2023-04-20T00:57:55;98704.16;;;4.47;93.41
13765;BME280;6953;48.810;9.204;2023-04-20T01:00:21;98659.13;;;4.17;93.76
13765;BME280;6953;48.810;9.204;2023-04-20T01:02:47;98711.06;;;4.46;94.47
13765;BME280;6953;48.810;9.204;2023-04-20T01:05:12;98704.22;;;4.44;94.92
13765;BME280;6953;48.810;9.204;2023-04-20T01:07:38;98700.97;;;4.36;95.61
13765;BME280;6953;48.810;9.204;2023-04-20T01:10:05;98421.19;;;2.71;95.65
13765;BME280;6953;48.810;9.204;2023-04-20T01:12:30;98689.16;;;4.26;95.67
13765;BME280;6953;48.810;9.204;2023-04-20T01:14:56;98717.00;;;4.19;96.92
13765;BME280;6953;48.810;9.204;2023-04-20T01:17:21;98460.78;;;2.76;96.36
13765;BME280;6953;48.810;9.204;2023-04-20T01:19:48;98719.00;;;4.10;97.30
13765;BME280;6953;48.810;9.204;2023-04-20T01:22:18;98577.84;;;3.55;97.54
13765;BME280;6953;48.810;9.204;2023-04-20T01:24:44;98382.47;;;2.34;97.70
13765;BME280;6953;48.810;9.204;2023-04-20T01:27:10;98345.94;;;2.13;97.52
13765;BME280;6953;48.810;9.204;2023-04-20T01:29:36;98649.63;;;3.86;98.28
13765;BME280;6953;48.810;9.204;2023-04-20T01:32:02;98474.53;;;2.78;98.66
13765;BME280;6953;48.810;9.204;2023-04-20T01:34:27;98706.84;;;3.80;99.27
13765;BME280;6953;48.810;9.204;2023-04-20T01:36:55;98658.44;;;3.79;99.55
13765;BME280;6953;48.810;9.204;2023-04-20T01:39:21;98654.28;;;3.74;100.00
13765;BME280;6953;48.810;9.204;2023-04-20T01:41:46;98650.91;;;3.70;100.00
13765;BME280;6953;48.810;9.204;2023-04-20T01:44:12;98336.13;;;1.92;100.00
13765;BME280;6953;48.810;9.204;2023-04-20T01:46:38;98417.72;;;2.38;100.00
13765;BME280;6953;48.810;9.204;2023-04-20T01:49:04;98639.72;;;3.68;100.00
13765;BME280;6953;48.810;9.204;2023-04-20T01:51:31;98685.63;;;3.66;100.00
13765;BME280;6953;48.810;9.204;2023-04-20T01:53:57;98640.72;;;3.63;100.00
13765;BME280;6953;48.810;9.204;2023-04-20T01:56:23;98634.72;;;3.62;100.00
13765;BME280;6953;48.810;9.204;2023-04-20T01:58:48;98627.81;;;3.61;100.00
13765;BME280;6953;48.810;9.204;2023-04-20T02:01:13;98399.03;;;2.27;100.00
13765;BME280;6953;48.810;9.204;2023-04-20T02:03:39;98462.88;;;2.62;100.00
13765;BME280;6953;48.810;9.204;2023-04-20T02:06:04;98550.41;;;3.14;100.00
13765;BME280;6953;48.810;9.204;2023-04-20T02:08:31;98359.94;;;2.04;100.00
13765;BME280;6953;48.810;9.204;2023-04-20T02:10:56;98628.78;;;3.57;100.00
13765;BME280;6953;48.810;9.204;2023-04-20T02:13:22;98631.44;;;3.54;100.00
13765;BME280;6953;48.810;9.204;2023-04-20T02:15:47;98623.88;;;3.47;100.00
13765;BME280;6953;48.810;9.204;2023-04-20T02:18:12;98436.78;;;2.36;100.00
13765;BME280;6953;48.810;9.204;2023-04-20T02:20:40;98494.63;;;2.68;100.00
13765;BME280;6953;48.810;9.204;2023-04-20T02:23:06;98431.72;;;2.31;100.00
13765;BME280;6953;48.810;9.204;2023-04-20T02:25:31;98313.34;;;1.73;100.00
13765;BME280;6953;48.810;9.204;2023-04-20T02:27:57;98559.94;;;3.14;100.00
13765;BME280;6953;48.810;9.204;2023-04-20T02:30:22;98608.31;;;3.47;100.00
13765;BME280;6953;48.810;9.204;2023-04-20T02:32:47;98603.13;;;3.47;100.00
13765;BME280;6953;48.810;9.204;2023-04-20T02:35:13;98286.06;;;1.61;100.00
13765;BME280;6953;48.810;9.204;2023-04-20T02:37:38;98602.47;;;3.39;100.00
13765;BME280;6953;48.810;9.204;2023-04-20T02:40:05;98329.56;;;1.79;100.00
13765;BME280;6953;48.810;9.204;2023-04-20T02:42:31;98580.50;;;3.20;100.00
13765;BME280;6953;48.810;9.204;2023-04-20T02:44:56;98620.94;;;3.27;100.00
13765;BME280;6953;48.810;9.204;2023-04-20T02:47:22;98581.47;;;3.16;100.00
13765;BME280;6953;48.810;9.204;2023-04-20T02:49:47;98550.88;;;2.97;100.00
13765;BME280;6953;48.810;9.204;2023-04-20T02:52:12;98568.41;;;2.87;100.00
13765;BME280;6953;48.810;9.204;2023-04-20T02:54:38;98258.47;;;1.27;100.00
13765;BME280;6953;48.810;9.204;2023-04-20T02:57:03;98577.28;;;3.10;100.00
13765;BME280;6953;48.810;9.204;2023-04-20T02:59:29;98595.16;;;3.21;100.00
13765;BME280;6953;48.810;9.204;2023-04-20T03:01:54;98398.06;;;1.97;100.00
13765;BME280;6953;48.810;9.204;2023-04-20T03:04:19;98281.47;;;1.37;100.00
13765;BME280;6953;48.810;9.204;2023-04-20T03:06:46;98282.34;;;1.35;100.00
13765;BME280;6953;48.810;9.204;2023-04-20T03:09:11;98588.53;;;3.11;100.00
13765;BME280;6953;48.810;9.204;2023-04-20T03:11:37;98448.06;;;2.33;100.00
13765;BME280;6953;48.810;9.204;2023-04-20T03:14:02;98623.09;;;3.10;100.00
13765;BME280;6953;48.810;9.204;2023-04-20T03:16:28;98617.91;;;3.10;100.00
13765;BME280;6953;48.810;9.204;2023-04-20T03:18:53;98305.22;;;1.53;100.00
13765;BME280;6953;48.810;9.204;2023-04-20T03:21:18;98585.97;;;3.09;100.00
13765;BME280;6953;48.810;9.204;2023-04-20T03:23:44;98615.34;;;3.10;100.00
13765;BME280;6953;48.810;9.204;2023-04-20T03:26:10;98536.44;;;2.87;100.00
13765;BME280;6953;48.810;9.204;2023-04-20T03:28:36;98269.56;;;1.30;100.00
13765;BME280;6953;48.810;9.204;2023-04-20T03:31:02;98536.44;;;2.87;100.00
13765;BME280;6953;48.810;9.204;2023-04-20T03:33:27;98553.06;;;2.78;100.00
13765;BME280;6953;48.810;9.204;2023-04-20T03:35:52;98554.44;;;2.93;100.00
13765;BME280;6953;48.810;9.204;2023-04-20T03:38:18;98245.09;;;1.10;100.00
13765;BME280;6953;48.810;9.204;2023-04-20T03:40:43;98529.81;;;2.77;100.00
13765;BME280;6953;48.810;9.204;2023-04-20T03:43:08;98306.13;;;1.50;100.00
13765;BME280;6953;48.810;9.204;2023-04-20T03:45:36;98560.28;;;3.01;100.00
13765;BME280;6953;48.810;9.204;2023-04-20T03:48:01;98558.59;;;3.00;100.00
13765;BME280;6953;48.810;9.204;2023-04-20T03:50:27;98556.19;;;2.92;100.00
13765;BME280;6953;48.810;9.204;2023-04-20T03:52:52;98543.50;;;2.82;100.00
13765;BME280;6953;48.810;9.204;2023-04-20T03:55:17;98551.22;;;2.83;100.00
13765;BME280;6953;48.810;9.204;2023-04-20T03:57:43;98542.00;;;2.73;100.00
13765;BME280;6953;48.810;9.204;2023-04-20T04:00:18;98558.16;;;2.83;100.00
13765;BME280;6953;48.810;9.204;2023-04-20T04:02:44;98241.09;;;0.96;100.00
13765;BME280;6953;48.810;9.204;2023-04-20T04:05:09;98548.84;;;2.76;100.00
13765;BME280;6953;48.810;9.204;2023-04-20T04:07:35;98563.88;;;2.60;100.00
13765;BME280;6953;48.810;9.204;2023-04-20T04:10:00;98549.72;;;2.75;100.00
13765;BME280;6953;48.810;9.204;2023-04-20T04:12:28;98390.75;;;1.79;100.00
13765;BME280;6953;48.810;9.204;2023-04-20T04:14:53;98537.03;;;2.64;100.00
13765;BME280;6953;48.810;9.204;2023-04-20T04:17:18;98552.34;;;2.73;100.00
13765;BME280;6953;48.810;9.204;2023-04-20T04:19:44;98524.38;;;2.52;100.00
13765;BME280;6953;48.810;9.204;2023-04-20T04:22:09;98574.28;;;2.59;100.00
13765;BME280;6953;48.810;9.204;2023-04-20T04:24:35;98553.38;;;2.66;100.00
13765;BME280;6953;48.810;9.204;2023-04-20T04:27:02;98561.09;;;2.69;100.00
13765;BME280;6953;48.810;9.204;2023-04-20T04:29:32;98555.78;;;2.74;100.00
13765;BME280;6953;48.810;9.204;2023-04-20T04:32:03;98557.41;;;2.78;100.00
13765;BME280;6953;48.810;9.204;2023-04-20T04:34:30;98358.19;;;1.72;100.00
13765;BME280;6953;48.810;9.204;2023-04-20T04:36:56;98549.38;;;2.88;100.00
13765;BME280;6953;48.810;9.204;2023-04-20T04:39:22;98471.06;;;2.45;100.00
13765;BME280;6953;48.810;9.204;2023-04-20T04:41:47;98303.59;;;1.49;100.00
13765;BME280;6953;48.810;9.204;2023-04-20T04:44:12;98533.06;;;2.85;100.00
13765;BME280;6953;48.810;9.204;2023-04-20T04:46:39;98549.19;;;2.96;100.00
13765;BME280;6953;48.810;9.204;2023-04-20T04:49:07;98554.25;;;3.00;100.00
13765;BME280;6953;48.810;9.204;2023-04-20T04:51:34;98552.94;;;2.84;100.00
13765;BME280;6953;48.810;9.204;2023-04-20T04:53:59;98551.44;;;3.07;100.00
13765;BME280;6953;48.810;9.204;2023-04-20T04:56:24;98556.47;;;3.15;100.00
13765;BME280;6953;48.810;9.204;2023-04-20T04:58:50;98178.97;;;1.03;100.00
13765;BME280;6953;48.810;9.204;2023-04-20T05:01:15;98554.50;;;3.24;100.00
13765;BME280;6953;48.810;9.204;2023-04-20T05:03:41;98168.50;;;1.07;100.00
13765;BME280;6953;48.810;9.204;2023-04-20T05:06:06;98551.63;;;3.35;100.00
13765;BME280;6953;48.810;9.204;2023-04-20T05:08:34;98513.03;;;3.24;100.00
13765;BME280;6953;48.810;9.204;2023-04-20T05:11:00;98272.47;;;1.87;100.00
13765;BME280;6953;48.810;9.204;2023-04-20T05:13:25;98526.38;;;3.41;100.00
13765;BME280;6953;48.810;9.204;2023-04-20T05:15:51;98585.28;;;3.67;100.00
13765;BME280;6953;48.810;9.204;2023-04-20T05:18:16;98436.47;;;3.11;100.00
13765;BME280;6953;48.810;9.204;2023-04-20T05:20:41;98560.28;;;3.95;100.00
13765;BME280;6953;48.810;9.204;2023-04-20T05:23:07;98255.78;;;2.30;100.00
13765;BME280;6953;48.810;9.204;2023-04-20T05:25:32;98508.50;;;3.90;100.00
13765;BME280;6953;48.810;9.204;2023-04-20T05:27:58;98559.94;;;4.34;100.00
13765;BME280;6953;48.810;9.204;2023-04-20T05:30:24;98309.00;;;3.01;100.00
13765;BME280;6953;48.810;9.204;2023-04-20T05:32:49;98323.66;;;3.29;100.00
13765;BME280;6953;48.810;9.204;2023-04-20T05:35:15;98575.31;;;4.95;100.00
13765;BME280;6953;48.810;9.204;2023-04-20T05:37:41;98556.84;;;5.52;100.00
13765;BME280;6953;48.810;9.204;2023-04-20T05:40:06;98506.88;;;5.67;100.00
13765;BME280;6953;48.810;9.204;2023-04-20T05:42:32;98550.50;;;6.08;100.00
13765;BME280;6953;48.810;9.204;2023-04-20T05:44:57;98552.44;;;6.69;100.00
13765;BME280;6953;48.810;9.204;2023-04-20T05:47:22;98547.53;;;7.84;100.00
13765;BME280;6953;48.810;9.204;2023-04-20T05:49:48;98531.81;;;8.94;92.90
13765;BME280;6953;48.810;9.204;2023-04-20T05:52:13;98560.16;;;10.05;86.78
13765;BME280;6953;48.810;9.204;2023-04-20T05:54:38;98524.38;;;11.12;79.26
13765;BME280;6953;48.810;9.204;2023-04-20T05:57:04;98282.16;;;10.66;73.69
13765;BME280;6953;48.810;9.204;2023-04-20T05:59:30;98549.16;;;13.04;68.14
13765;BME280;6953;48.810;9.204;2023-04-20T06:01:56;98562.22;;;13.71;62.11
13765;BME280;6953;48.810;9.204;2023-04-20T06:04:24;98534.34;;;14.54;58.19
13765;BME280;6953;48.810;9.204;2023-04-20T06:06:49;98546.97;;;15.10;56.05
13765;BME280;6953;48.810;9.204;2023-04-20T06:09:15;98527.34;;;15.82;52.29
13765;BME280;6953;48.810;9.204;2023-04-20T06:11:40;98465.06;;;15.89;49.57
13765;BME280;6953;48.810;9.204;2023-04-20T06:14:06;98530.41;;;16.76;47.08
13765;BME280;6953;48.810;9.204;2023-04-20T06:16:31;98371.66;;;16.31;44.77
13765;BME280;6953;48.810;9.204;2023-04-20T06:18:56;98536.13;;;17.77;43.26
13765;BME280;6953;48.810;9.204;2023-04-20T06:21:22;98540.00;;;18.34;41.85
13765;BME280;6953;48.810;9.204;2023-04-20T06:23:49;98541.50;;;18.57;37.71
13765;BME280;6953;48.810;9.204;2023-04-20T06:26:14;98358.25;;;17.68;39.07
13765;BME280;6953;48.810;9.204;2023-04-20T06:28:40;98523.44;;;19.09;37.39
13765;BME280;6953;48.810;9.204;2023-04-20T06:31:06;98563.59;;;19.36;35.82
13765;BME280;6953;48.810;9.204;2023-04-20T06:33:31;98462.28;;;19.00;34.96
13765;BME280;6953;48.810;9.204;2023-04-20T06:35:57;98489.06;;;19.36;34.27
13765;BME280;6953;48.810;9.204;2023-04-20T06:38:23;98407.44;;;19.18;33.85
13765;BME280;6953;48.810;9.204;2023-04-20T06:40:52;98539.56;;;20.31;32.71
13765;BME280;6953;48.810;9.204;2023-04-20T06:43:18;98381.03;;;19.72;31.98
13765;BME280;6953;48.810;9.204;2023-04-20T06:45:44;98529.38;;;20.99;31.69
13765;BME280;6953;48.810;9.204;2023-04-20T06:48:09;98529.47;;;21.42;31.46
13765;BME280;6953;48.810;9.204;2023-04-20T06:50:34;98551.03;;;21.58;30.43
13765;BME280;6953;48.810;9.204;2023-04-20T06:53:01;98508.38;;;21.66;30.25
13765;BME280;6953;48.810;9.204;2023-04-20T06:55:27;98546.28;;;22.04;29.03
13765;BME280;6953;48.810;9.204;2023-04-20T06:57:52;98538.53;;;22.18;28.59
13765;BME280;6953;48.810;9.204;2023-04-20T07:00:18;98544.84;;;22.60;28.57
13765;BME280;6953;48.810;9.204;2023-04-20T07:02:50;98530.56;;;23.11;27.17
13765;BME280;6953;48.810;9.204;2023-04-20T07:05:16;98558.75;;;23.46;26.95
13765;BME280;6953;48.810;9.204;2023-04-20T07:07:42;98497.63;;;23.34;27.30
13765;BME280;6953;48.810;9.204;2023-04-20T07:10:10;98528.66;;;23.68;27.33
13765;BME280;6953;48.810;9.204;2023-04-20T07:12:36;98523.28;;;23.76;25.99
13765;BME280;6953;48.810;9.204;2023-04-20T07:15:02;98387.09;;;22.92;26.03
13765;BME280;6953;48.810;9.204;2023-04-20T07:17:28;98480.75;;;23.49;26.05
13765;BME280;6953;48.810;9.204;2023-04-20T07:19:53;98534.34;;;23.65;26.06
13765;BME280;6953;48.810;9.204;2023-04-20T07:22:19;98539.47;;;23.35;26.20
13765;BME280;6953;48.810;9.204;2023-04-20T07:24:44;98324.81;;;20.55;28.64
13765;BME280;6953;48.810;9.204;2023-04-20T07:27:10;98438.03;;;19.69;31.18
13765;BME280;6953;48.810;9.204;2023-04-20T07:29:35;98507.09;;;19.04;33.65
13765;BME280;6953;48.810;9.204;2023-04-20T07:32:00;98343.19;;;17.27;35.48
13765;BME280;6953;48.810;9.204;2023-04-20T07:34:26;98282.81;;;16.49;37.22
13765;BME280;6953;48.810;9.204;2023-04-20T07:36:51;98218.56;;;16.05;38.20
13765;BME280;6953;48.810;9.204;2023-04-20T07:39:16;98527.38;;;18.06;37.60
13765;BME280;6953;48.810;9.204;2023-04-20T07:41:42;98494.53;;;18.28;36.94
13765;BME280;6953;48.810;9.204;2023-04-20T07:44:07;98490.69;;;18.21;36.89
13765;BME280;6953;48.810;9.204;2023-04-20T07:46:33;98492.66;;;18.49;36.51
13765;BME280;6953;48.810;9.204;2023-04-20T07:48:58;98509.41;;;18.19;37.53
13765;BME280;6953;48.810;9.204;2023-04-20T07:51:24;98236.50;;;16.01;39.63
13765;BME280;6953;48.810;9.204;2023-04-20T07:53:49;98489.91;;;17.28;40.71
13765;BME280;6953;48.810;9.204;2023-04-20T07:56:14;98479.94;;;17.20;41.00
13765;BME280;6953;48.810;9.204;2023-04-20T07:58:40;98429.16;;;16.62;41.37
13765;BME280;6953;48.810;9.204;2023-04-20T08:01:05;98468.03;;;16.62;42.21
13765;BME280;6953;48.810;9.204;2023-04-20T08:03:31;98485.72;;;16.72;43.27
13765;BME280;6953;48.810;9.204;2023-04-20T08:05:57;98491.50;;;16.77;43.65
13765;BME280;6953;48.810;9.204;2023-04-20T08:08:23;98520.53;;;16.78;43.89
13765;BME280;6953;48.810;9.204;2023-04-20T08:10:48;98499.94;;;16.82;43.74
13765;BME280;6953;48.810;9.204;2023-04-20T08:13:16;98498.00;;;16.84;43.87
13765;BME280;6953;48.810;9.204;2023-04-20T08:15:42;98486.97;;;16.35;43.88
13765;BME280;6953;48.810;9.204;2023-04-20T08:18:07;98462.44;;;15.44;45.91
13765;BME280;6953;48.810;9.204;2023-04-20T08:20:32;98487.53;;;14.92;48.24
13765;BME280;6953;48.810;9.204;2023-04-20T08:22:58;98489.31;;;14.32;49.99
13765;BME280;6953;48.810;9.204;2023-04-20T08:25:24;98490.72;;;13.75;52.53
13765;BME280;6953;48.810;9.204;2023-04-20T08:27:49;98483.47;;;13.28;53.93
13765;BME280;6953;48.810;9.204;2023-04-20T08:30:14;98476.31;;;12.91;55.67
13765;BME280;6953;48.810;9.204;2023-04-20T08:32:40;98461.03;;;12.43;56.98
13765;BME280;6953;48.810;9.204;2023-04-20T08:35:06;98416.44;;;11.73;58.64
13765;BME280;6953;48.810;9.204;2023-04-20T08:37:32;98225.66;;;10.32;60.55
13765;BME280;6953;48.810;9.204;2023-04-20T08:39:57;98224.41;;;10.09;61.97
13765;BME280;6953;48.810;9.204;2023-04-20T08:42:23;98501.31;;;11.46;63.06
13765;BME280;6953;48.810;9.204;2023-04-20T08:44:48;98499.31;;;11.36;64.07
13765;BME280;6953;48.810;9.204;2023-04-20T08:47:14;98500.31;;;11.33;64.44
13765;BME280;6953;48.810;9.204;2023-04-20T08:49:40;98494.59;;;11.27;64.69
13765;BME280;6953;48.810;9.204;2023-04-20T08:52:05;98487.75;;;11.24;64.72
13765;BME280;6953;48.810;9.204;2023-04-20T08:54:36;98508.38;;;11.01;64.96
13765;BME280;6953;48.810;9.204;2023-04-20T08:57:02;98497.88;;;11.01;66.32
13765;BME280;6953;48.810;9.204;2023-04-20T08:59:28;98541.50;;;11.03;66.95
13765;BME280;6953;48.810;9.204;2023-04-20T09:01:53;98490.09;;;10.99;67.25
13765;BME280;6953;48.810;9.204;2023-04-20T09:04:24;98215.53;;;9.36;67.69
13765;BME280;6953;48.810;9.204;2023-04-20T09:06:54;98526.75;;;11.01;67.74
13765;BME280;6953;48.810;9.204;2023-04-20T09:09:21;98471.53;;;11.02;68.05
13765;BME280;6953;48.810;9.204;2023-04-20T09:12:05;98492.53;;;11.32;67.57
13765;BME280;6953;48.810;9.204;2023-04-20T09:14:47;98210.94;;;9.70;66.64
13765;BME280;6953;48.810;9.204;2023-04-20T09:17:14;98333.75;;;10.36;66.47
13765;BME280;6953;48.810;9.204;2023-04-20T09:19:42;98516.53;;;11.26;66.97
13765;BME280;6953;48.810;9.204;2023-04-20T09:22:08;98391.41;;;10.67;67.50
13765;BME280;6953;48.810;9.204;2023-04-20T09:24:36;98472.63;;;11.14;67.45
13765;BME280;6953;48.810;9.204;2023-04-20T09:27:22;98481.72;;;11.22;67.42
13765;BME280;6953;48.810;9.204;2023-04-20T09:30:00;98268.03;;;9.95;67.49
13765;BME280;6953;48.810;9.204;2023-04-20T09:32:28;98467.56;;;11.25;67.41
13765;BME280;6953;48.810;9.204;2023-04-20T09:34:54;98476.44;;;11.51;66.75
13765;BME280;6953;48.810;9.204;2023-04-20T09:37:19;98448.16;;;11.56;65.89
13765;BME280;6953;48.810;9.204;2023-04-20T09:39:47;98213.41;;;10.32;65.15
13765;BME280;6953;48.810;9.204;2023-04-20T09:42:14;98391.75;;;11.62;65.20
13765;BME280;6953;48.810;9.204;2023-04-20T09:44:40;98416.31;;;12.03;64.41
13765;BME280;6953;48.810;9.204;2023-04-20T09:47:06;98190.03;;;10.85;63.89
13765;BME280;6953;48.810;9.204;2023-04-20T09:49:32;98381.38;;;12.01;63.76
13765;BME280;6953;48.810;9.204;2023-04-20T09:52:02;98465.63;;;12.53;63.40
13765;BME280;6953;48.810;9.204;2023-04-20T09:54:28;98468.19;;;12.27;63.94
13765;BME280;6953;48.810;9.204;2023-04-20T09:56:55;98476.56;;;12.20;64.79
13765;BME280;6953;48.810;9.204;2023-04-20T09:59:22;98376.09;;;11.60;64.95
13765;BME280;6953;48.810;9.204;2023-04-20T10:01:48;98473.84;;;12.07;65.19
13765;BME280;6953;48.810;9.204;2023-04-20T10:04:14;98467.50;;;11.97;65.37
13765;BME280;6953;48.810;9.204;2023-04-20T10:06:54;98428.63;;;11.74;66.02
13765;BME280;6953;48.810;9.204;2023-04-20T10:09:23;98463.63;;;12.03;65.60
13765;BME280;6953;48.810;9.204;2023-04-20T10:11:52;98189.06;;;10.44;65.22
13765;BME280;6953;48.810;9.204;2023-04-20T10:14:29;98460.91;;;12.04;65.74
13765;BME280;6953;48.810;9.204;2023-04-20T10:17:00;98465.56;;;12.27;65.85
13765;BME280;6953;48.810;9.204;2023-04-20T10:19:36;98189.53;;;10.92;64.70
13765;BME280;6953;48.810;9.204;2023-04-20T10:22:03;98460.06;;;12.44;64.25
13765;BME280;6953;48.810;9.204;2023-04-20T10:24:29;98292.28;;;11.56;64.65
13765;BME280;6953;48.810;9.204;2023-04-20T10:26:55;98462.31;;;12.50;64.56
13765;BME280;6953;48.810;9.204;2023-04-20T10:29:27;98443.66;;;12.67;63.98
13765;BME280;6953;48.810;9.204;2023-04-20T10:31:54;98468.25;;;12.80;63.75
13765;BME280;6953;48.810;9.204;2023-04-20T10:34:32;98450.81;;;12.65;64.33
13765;BME280;6953;48.810;9.204;2023-04-20T10:37:12;98417.78;;;12.47;65.59
13765;BME280;6953;48.810;9.204;2023-04-20T10:39:47;98413.09;;;12.12;66.96
13765;BME280;6953;48.810;9.204;2023-04-20T10:42:12;98200.25;;;10.89;68.18
13765;BME280;6953;48.810;9.204;2023-04-20T10:44:51;98480.97;;;12.33;68.74
13765;BME280;6953;48.810;9.204;2023-04-20T10:47:26;98271.78;;;11.21;69.98
13765;BME280;6953;48.810;9.204;2023-04-20T10:50:14;98431.03;;;12.05;70.97
13765;BME280;6953;48.810;9.204;2023-04-20T10:52:41;98381.59;;;11.56;74.08
13765;BME280;6953;48.810;9.204;2023-04-20T10:55:18;98414.34;;;11.64;75.47
13765;BME280;6953;48.810;9.204;2023-04-20T10:57:44;98404.25;;;11.58;76.77
13765;BME280;6953;48.810;9.204;2023-04-20T11:00:17;98403.09;;;11.62;77.71
13765;BME280;6953;48.810;9.204;2023-04-20T11:03:00;98394.66;;;11.71;77.17
13765;BME280;6953;48.810;9.204;2023-04-20T11:05:26;98377.50;;;11.66;78.25
13765;BME280;6953;48.810;9.204;2023-04-20T11:07:59;98388.44;;;12.00;79.25
13765;BME280;6953;48.810;9.204;2023-04-20T11:10:39;98408.72;;;11.98;78.85
13765;BME280;6953;48.810;9.204;2023-04-20T11:13:05;98386.03;;;11.69;78.90
13765;BME280;6953;48.810;9.204;2023-04-20T11:15:34;98391.00;;;11.60;79.18
13765;BME280;6953;48.810;9.204;2023-04-20T11:18:09;98379.72;;;11.44;78.99
13765;BME280;6953;48.810;9.204;2023-04-20T11:20:36;98382.25;;;11.32;79.28
13765;BME280;6953;48.810;9.204;2023-04-20T11:23:02;98139.31;;;9.85;80.12
13765;BME280;6953;48.810;9.204;2023-04-20T11:25:29;98409.25;;;11.47;80.61
13765;BME280;6953;48.810;9.204;2023-04-20T11:28:04;98371.75;;;11.73;80.34
13765;BME280;6953;48.810;9.204;2023-04-20T11:30:39;98366.22;;;11.64;80.21
13765;BME280;6953;48.810;9.204;2023-04-20T11:33:05;98345.84;;;11.67;80.23
13765;BME280;6953;48.810;9.204;2023-04-20T11:35:42;98367.19;;;12.03;80.64
13765;BME280;6953;48.810;9.204;2023-04-20T11:38:08;98387.38;;;12.03;79.08
13765;BME280;6953;48.810;9.204;2023-04-20T11:40:34;98108.50;;;10.60;78.28
13765;BME280;6953;48.810;9.204;2023-04-20T11:42:59;98240.41;;;11.32;78.73
13765;BME280;6953;48.810;9.204;2023-04-20T11:45:25;98235.31;;;11.42;78.30
13765;BME280;6953;48.810;9.204;2023-04-20T11:47:52;98380.44;;;12.42;77.53
13765;BME280;6953;48.810;9.204;2023-04-20T11:50:19;98359.69;;;12.50;76.75
13765;BME280;6953;48.810;9.204;2023-04-20T11:52:45;98375.53;;;12.62;76.86
13765;BME280;6953;48.810;9.204;2023-04-20T11:55:10;98376.91;;;12.68;76.88
13765;BME280;6953;48.810;9.204;2023-04-20T11:57:36;98301.16;;;12.08;77.02
13765;BME280;6953;48.810;9.204;2023-04-20T12:00:02;98387.81;;;12.49;76.54
13765;BME280;6953;48.810;9.204;2023-04-20T12:02:28;98352.63;;;12.12;75.17
13765;BME280;6953;48.810;9.204;2023-04-20T12:04:53;98358.53;;;12.15;74.94
13765;BME280;6953;48.810;9.204;2023-04-20T12:07:20;98385.72;;;12.28;74.65
13765;BME280;6953;48.810;9.204;2023-04-20T12:09:46;98382.75;;;12.20;74.77
13765;BME280;6953;48.810;9.204;2023-04-20T12:12:11;98183.44;;;11.06;74.80
13765;BME280;6953;48.810;9.204;2023-04-20T12:14:37;98399.81;;;12.27;74.71
13765;BME280;6953;48.810;9.204;2023-04-20T12:17:03;98330.34;;;11.91;73.86
13765;BME280;6953;48.810;9.204;2023-04-20T12:19:29;98304.06;;;11.77;74.42
13765;BME280;6953;48.810;9.204;2023-04-20T12:21:55;98369.88;;;12.16;74.45
13765;BME280;6953;48.810;9.204;2023-04-20T12:24:21;98084.84;;;10.61;74.41
13765;BME280;6953;48.810;9.204;2023-04-20T12:26:46;98371.31;;;12.34;74.24
13765;BME280;6953;48.810;9.204;2023-04-20T12:29:12;98357.22;;;12.35;73.67
13765;BME280;6953;48.810;9.204;2023-04-20T12:31:37;98360.31;;;12.41;73.48
13765;BME280;6953;48.810;9.204;2023-04-20T12:34:03;98382.75;;;12.46;72.85
13765;BME280;6953;48.810;9.204;2023-04-20T12:36:28;98027.50;;;10.55;72.82
13765;BME280;6953;48.810;9.204;2023-04-20T12:38:54;98249.03;;;11.88;72.88
13765;BME280;6953;48.810;9.204;2023-04-20T12:41:23;98356.25;;;12.49;72.79
13765;BME280;6953;48.810;9.204;2023-04-20T12:43:52;98356.44;;;12.46;72.87
13765;BME280;6953;48.810;9.204;2023-04-20T12:46:18;98321.31;;;12.34;73.18
13765;BME280;6953;48.810;9.204;2023-04-20T12:48:43;98396.97;;;12.56;72.02
13765;BME280;6953;48.810;9.204;2023-04-20T12:51:12;98296.91;;;12.19;72.06
13765;BME280;6953;48.810;9.204;2023-04-20T12:53:38;98329.94;;;12.49;72.30
13765;BME280;6953;48.810;9.204;2023-04-20T12:56:04;98352.91;;;12.60;71.85
13765;BME280;6953;48.810;9.204;2023-04-20T12:58:29;98340.28;;;12.77;70.80
13765;BME280;6953;48.810;9.204;2023-04-20T13:00:56;98323.53;;;12.78;70.89
13765;BME280;6953;48.810;9.204;2023-04-20T13:03:21;98126.25;;;11.63;71.17
13765;BME280;6953;48.810;9.204;2023-04-20T13:05:47;97979.50;;;10.94;71.03
13765;BME280;6953;48.810;9.204;2023-04-20T13:08:12;98326.88;;;13.07;70.76
13765;BME280;6953;48.810;9.204;2023-04-20T13:10:40;98313.81;;;13.05;70.76